Tiempo atmosférico en la estación meteorológica de Las Cabezas de San Juan, Sevilla (105 m.)



Fecha
DESCASC
Temp. máxima en grados centígrados (hora)
DESCASC
Temp. mínima en grados centígrados (hora)
DESCASC
Temp. media en grados centígrados
DESCASC
Racha de viento máxima en m/sg (hora)
DESCASC
Velocidad máxima media en intervalos de 10 minutos(hora)
DESCASC
Precipitaciones diarias en mm
DESCASC
Precipitaciones de 00:00 a 06:00 en mm
DESCASC
Precipitaciones de 06:00 a 12:00 en mm
DESCASC
Precipitaciones de 12:00 a 18:00 en mm
DESCASC
Precipitaciones de 18:00 a 24:00 en mm
DESCASC
29-03-2020 21.2 (16:20) 9.2 (07:10) 15.2 5.83 (10:50) 3.33 (03:20) 0 0 0 0 0
28-03-2020 21.2 (15:50) 7.9 (05:10) 14.6 8.06 (13:10) 4.72 (18:00) 0 0 0 0 0
27-03-2020 18.9 (16:00) 7.6 (07:30) 13.2 8.61 (13:50) 5 (14:10) 0 0 0 0 0
26-03-2020 20.7 (15:20) 10.2 (00:00) 15.5 8.33 (17:20) 4.17 (14:10) 0 0 0 0 0
25-03-2020 19.1 (16:30) 10.6 (00:00) 14.9 5.28 (11:10) 3.61 (11:10) 0.4 0 0.4 0 0
24-03-2020 -- (--) -- (--) -- -- (--) -- (--) -- 0 -- 0.2 0
23-03-2020 19.4 (15:30) 6 (00:00) 12.7 7.5 (15:50) 5 (16:40) 1.6 0.2 0 0 1.4
22-03-2020 -- (--) -- (--) -- -- (--) -- (--) -- 5.6 -- 0.2 0
21-03-2020 -- (--) -- (--) -- 13.89 (16:00) 9.17 (16:00) -- 4 -- 4.8 2.2
20-03-2020 19.9 (16:20) 10.5 (00:00) 15.2 11.39 (23:00) 6.39 (14:10) -- 0 -- 0 7.4
19-03-2020 21.3 (15:00) 12.5 (00:00) 16.9 14.17 (09:10) 5.56 (00:20) -- 0 -- 0 0
18-03-2020 23.5 (15:50) 12.2 (00:00) 17.8 10.56 (23:40) 6.67 (23:20) 0 0 0 0 0
17-03-2020 17.7 (15:10) 7.5 (00:00) 12.6 10.56 (10:20) 7.22 (10:20) 12.8 9.6 3.2 0 0
16-03-2020 16.8 (15:10) 7.7 (00:00) 12.2 12.22 (20:00) 7.5 (20:00) 1 0.2 0 0 0.8
15-03-2020 24.1 (16:40) 11.3 (00:00) 17.7 7.78 (19:30) 4.44 (19:30) 0 0 0 0 0
14-03-2020 23.4 (16:50) 10 (00:00) 16.7 3.89 (15:50) 3.06 (02:50) 0 0 0 0 0
13-03-2020 23.1 (16:00) 11.1 (02:00) 17.1 6.94 (18:00) 4.44 (18:00) 0 0 0 0 0
12-03-2020 25.3 (15:50) 10.6 (00:00) 17.9 8.06 (17:40) 4.72 (17:40) 0 0 0 0 0
11-03-2020 29.9 (16:10) 9 (00:00) 19.4 6.11 (23:00) 4.72 (22:40) 0 0 0 0 0
10-03-2020 28.1 (17:30) 7.5 (00:00) 17.8 8.61 (09:20) 4.72 (19:50) 0 0 0 0 0
09-03-2020 24.1 (16:50) 7.5 (00:00) 15.8 8.06 (17:00) 4.17 (16:00) 0 0 0 0 0
08-03-2020 24.2 (16:00) 6.3 (00:00) 15.3 5.28 (16:20) 3.61 (18:00) 0 0 0 0 0
07-03-2020 21.9 (14:50) 6.5 (00:00) 14.2 10 (13:10) 5.28 (14:30) 0 0 0 0 0
06-03-2020 19.2 (16:20) 6.8 (00:00) 13 9.72 (14:00) 6.39 (11:00) 0 0 0 0 0
05-03-2020 18.7 (17:30) 9.4 (00:00) 14.1 8.89 (14:00) 5.83 (16:30) 0 0 0 0 0
04-03-2020 21.4 (16:00) 9.2 (08:30) 15.3 9.44 (14:20) 3.89 (14:20) 0 0 0 0 0
03-03-2020 18.3 (15:50) 7.4 (00:00) 12.8 10.28 (14:00) 5.56 (13:40) 0 0 0 0 0
02-03-2020 19.6 (13:20) 11.7 (00:00) 15.7 10.83 (14:50) 6.39 (14:40) 0.8 0 0.8 0 0
01-03-2020 20 (15:40) 10.4 (00:00) 15.2 8.61 (22:10) 5 (22:30) 0 0 0 0 0
29-02-2020 18.2 (14:50) 11 (00:00) 14.6 8.33 (14:40) 4.44 (16:10) 1.6 0 0 0 1.6

Gráficas

Temp. máximas Temp. mínimas Temp. medias Precipitaciones Rachas de viento máximas Velocidades máximas media en intervalos de 10 minutos

Datos horarios

Fecha y hora oficial Temperatura (ºC) Velocidad del viento (km/h) Dirección del viento Racha (km/h) Dirección de racha Precipitación (mm) Presión (hPa) Tendencia (hPa) Humedad (%)
2020-03-29 23:00:00 13.7 0 Calma 6 Sudoeste 0 -- -- 81
2020-03-29 22:00:00 15.1 4 Sudoeste 12 Sudoeste 0 -- -- 76
2020-03-29 21:00:00 16.4 4 Sudoeste 12 Sudoeste 0 -- -- 69
2020-03-29 20:00:00 17.7 5 Sudoeste 16 Sudoeste 0 -- -- 63
2020-03-29 19:00:00 18.4 6 Oeste 20 Sudoeste 0 -- -- 61
2020-03-29 18:00:00 19.7 6 Oeste 20 Sudoeste 0 -- -- 58
2020-03-29 17:00:00 20.6 7 Sudoeste 20 Oeste 0 -- -- 46
2020-03-29 16:00:00 21.1 7 Sudoeste 19 Oeste 0 -- -- 43
2020-03-29 15:00:00 20.7 6 Sudeste 15 Nordeste 0 -- -- 46
2020-03-29 14:00:00 19.6 6 Sudeste 15 Sur 0 -- -- 50
2020-03-29 13:00:00 18.3 4 Nordeste 15 Nordeste 0 -- -- 56
2020-03-29 12:00:00 17.3 7 Nordeste 19 Nordeste 0 -- -- 65
2020-03-29 11:00:00 15.6 10 Nordeste 21 Nordeste 0 -- -- 71
2020-03-29 10:00:00 13.9 7 Nordeste 14 Este 0 -- -- 77
2020-03-29 09:00:00 10.6 7 Este 14 Este 0 -- -- 85
2020-03-29 08:00:00 10.8 6 Este 15 Este 0 -- -- 85
2020-03-29 07:00:00 9.4 5 Este 11 Este 0 -- -- 89
2020-03-29 06:00:00 9.9 5 Este 17 Este 0 -- -- 90
2020-03-29 05:00:00 10 6 Sudeste 17 Sudeste 0 -- -- 85
2020-03-29 03:00:00 11.4 10 Sudeste 14 Sudeste 0 -- -- 83
2020-03-29 01:00:00 11.4 6 Sur 10 Sur 0 -- -- 87
2020-03-29 00:00:00 10.9 3 Sur 7 Sudeste 0 -- -- 88
2020-03-28 23:00:00 11.6 4 Sur 8 Sur 0 -- -- 85
2020-03-28 22:00:00 12.7 4 Sur 6 Sur 0 -- -- 81
2020-03-28 21:00:00 13.7 2 Sur 12 Sudoeste 0 -- -- 77
2020-03-28 20:00:00 15.2 7 Sudoeste 17 Sur 0 -- -- 71
2020-03-28 19:00:00 16 3 Sudoeste 24 Sudoeste 0 -- -- 73
2020-03-28 18:00:00 17.3 17 Sur 25 Sur 0 -- -- 62
2020-03-28 17:00:00 19.8 7 Sudoeste 21 Sur 0 -- -- 50
2020-03-28 16:00:00 21.1 11 Sur 23 Sur 0 -- -- 45
2020-03-28 15:00:00 20 8 Sudoeste 22 Sur 0 -- -- 48
2020-03-28 14:00:00 19.7 8 Sur 29 Sur 0 -- -- 48
2020-03-28 13:00:00 18.8 13 Sur 23 Sur 0 -- -- 48
2020-03-28 12:00:00 17.6 10 Sur 18 Sur 0 -- -- 51
2020-03-28 11:00:00 16.4 7 Sur 19 Sudoeste 0 -- -- 56
2020-03-28 10:00:00 14.7 10 Sudeste 17 Sudeste 0 -- -- 71
2020-03-28 09:00:00 12 11 Sudeste 18 Sudeste 0 -- -- 84
2020-03-28 08:00:00 9.8 13 Sudeste 22 Sudeste 0 -- -- 89
2020-03-28 07:00:00 8.3 10 Sudeste 19 Sudeste 0 -- -- 93
2020-03-28 06:00:00 8.2 11 Sudeste 17 Sudeste 0 -- -- 94
2020-03-28 05:00:00 8 6 Este 12 Sudeste 0 -- -- 94
2020-03-28 04:00:00 8.6 9 Sudeste 16 Sudeste 0 -- -- 93
2020-03-28 03:00:00 9.8 12 Sudeste 18 Sudeste 0 -- -- 92
2020-03-28 02:00:00 9.3 9 Sudeste 12 Sudeste 0 -- -- 91
2020-03-28 01:00:00 9.3 9 Sudeste 13 Sudeste 0 -- -- 92
2020-03-28 00:00:00 9.3 10 Sudeste 12 Sudeste 0 -- -- 90
2020-03-27 23:00:00 9.5 3 Sur 6 Sur 0 -- -- 88
2020-03-27 22:00:00 10.3 3 Sur 5 Sudoeste 0 -- -- 84
2020-03-27 21:00:00 11.2 3 Sur 12 Sur 0 -- -- 80
2020-03-27 20:00:00 12.9 4 Sudoeste 11 Sudoeste 0 -- -- 74
2020-03-27 19:00:00 14.9 4 Oeste 23 Oeste 0 -- -- 68
2020-03-27 18:00:00 16.6 9 Oeste 26 Oeste 0 -- -- 60
2020-03-27 17:00:00 17.8 9 Oeste 23 Noroeste 0 -- -- 56
2020-03-27 16:00:00 18.9 8 Sudoeste 26 Sudoeste 0 -- -- 53
2020-03-27 15:00:00 17.9 12 Sudoeste 31 Sur 0 -- -- 57
2020-03-27 14:00:00 16.1 15 Sur 31 Sur 0 -- -- 66
2020-03-27 13:00:00 15.4 16 Sur 27 Sur 0 -- -- 66
2020-03-27 12:00:00 13.4 10 Sur 21 Sur 0 -- -- 73
2020-03-27 11:00:00 11.5 5 Oeste 19 Oeste 0 -- -- 79
2020-03-27 10:00:00 11 5 Sudoeste 15 Sudoeste 0 -- -- 84
2020-03-27 09:00:00 9.4 5 Sudoeste 19 Sur 0 -- -- 94
2020-03-27 08:00:00 7.9 3 Sudoeste 10 Sudoeste 0 -- -- 96
2020-03-27 07:00:00 7.7 4 Sudoeste 9 Sur 0 -- -- 96
2020-03-27 06:00:00 8.2 7 Sur 9 Sur 0 -- -- 95
2020-03-27 05:00:00 8.5 5 Sur 8 Sur 0 -- -- 94
2020-03-27 04:00:00 9.2 5 Sudoeste 7 Sur 0 -- -- 93
2020-03-27 03:00:00 10 3 Sudoeste 8 Sudoeste 0 -- -- 92
2020-03-27 02:00:00 10.8 3 Sudoeste 9 Oeste 0 -- -- 89
2020-03-27 01:00:00 11.8 5 Sudoeste 15 Oeste 0 -- -- 85
2020-03-27 00:00:00 13 6 Sudoeste 15 Sudoeste 0 -- -- 82
2020-03-26 23:00:00 13.2 7 Sudoeste 13 Sudoeste 0 -- -- 88
2020-03-26 22:00:00 13.9 6 Sudoeste 16 Sudoeste 0 -- -- 86
2020-03-26 21:00:00 14.2 5 Sudoeste 11 Sudoeste 0 -- -- 83
2020-03-26 20:00:00 15.5 4 Sudoeste 22 Oeste 0 -- -- 74
2020-03-26 19:00:00 17.5 6 Oeste 28 Oeste 0 -- -- 62
2020-03-26 18:00:00 19.4 9 Oeste 30 Noroeste 0 -- -- 60
2020-03-26 17:00:00 20.2 8 Oeste 26 Noroeste 0 -- -- 55
2020-03-26 16:00:00 20.6 10 Oeste 27 Oeste 0 -- -- 55
2020-03-26 15:00:00 20.5 9 Oeste 29 Oeste 0 -- -- 57
2020-03-26 14:00:00 19.7 12 Oeste 27 Oeste 0 -- -- 57
2020-03-26 13:00:00 19.2 9 Oeste 27 Oeste 0 -- -- 58
2020-03-26 12:00:00 18.6 9 Sudoeste 23 Sudoeste 0 -- -- 63
2020-03-26 11:00:00 16.5 8 Sudoeste 22 Sudoeste 0 -- -- 80
2020-03-26 10:00:00 14.8 6 Sudoeste 18 Sudoeste 0 -- -- 85
2020-03-26 09:00:00 13.4 9 Sur 16 Sur 0 -- -- 86
2020-03-26 08:00:00 12.1 12 Sur 17 Sur 0 -- -- 83
2020-03-26 07:00:00 12 8 Sur 13 Sur 0 -- -- 84
2020-03-26 06:00:00 12 8 Sur 15 Sur 0 -- -- 82
2020-03-26 05:00:00 11.8 7 Sur 14 Sur 0 -- -- 83
2020-03-26 04:00:00 12 9 Sur 13 Sur 0 -- -- 84
2020-03-26 03:00:00 11.3 6 Sur 9 Sur 0 -- -- 88
2020-03-26 02:00:00 10.5 8 Sur 13 Sur 0 -- -- 91
2020-03-26 01:00:00 10.2 5 Sur 9 Sur 0 -- -- 91
2020-03-26 00:00:00 11.2 4 Sur 11 Sur 0 -- -- 87
2020-03-25 23:00:00 12.2 8 Sur 13 Sur 0 -- -- 84
2020-03-25 22:00:00 13.3 10 Sur 18 Sur 0 -- -- 79
2020-03-25 21:00:00 14.4 3 Sudoeste 9 Sudoeste 0 -- -- 85
2020-03-25 20:00:00 15.3 6 Sudoeste 19 Sur 0 -- -- 74
2020-03-25 19:00:00 16.9 9 Sudoeste 19 Sudoeste 0 -- -- 68
2020-03-25 18:00:00 17.5 9 Sur 14 Sudoeste 0 -- -- 69
2020-03-25 17:00:00 18.6 9 Oeste 15 Oeste 0 -- -- 64
2020-03-25 16:00:00 18.4 4 Sur 13 Oeste 0 -- -- 63
2020-03-25 15:00:00 17.5 6 Oeste 16 Oeste 0 -- -- 64
2020-03-25 14:00:00 16 4 Oeste 10 Noroeste 0 -- -- 75
2020-03-25 13:00:00 15 5 Sur 17 Sudoeste 0 -- -- 78
2020-03-25 12:00:00 13.9 9 Sur 19 Sur 0 -- -- 79
2020-03-25 11:00:00 13.5 8 Sur 15 Sur 0 -- -- 88
2020-03-25 10:00:00 12.8 6 Sur 12 Sudeste 0 -- -- 96
2020-03-25 09:00:00 12.4 3 Sur 8 Sudeste 0.4 -- -- 97
2020-03-25 08:00:00 12 0 Calma 5 Norte 0 -- -- 98
2020-03-25 07:00:00 11.9 2 Nordeste 4 Nordeste 0 -- -- 97
2020-03-25 06:00:00 12 0 Calma 4 Este 0 -- -- 97
2020-03-25 05:00:00 11.9 0 Calma 3 Sudeste 0 -- -- 97
2020-03-25 04:00:00 11.6 0 Calma 6 Este 0 -- -- 97
2020-03-25 03:00:00 10.7 0 Calma 5 Este 0 -- -- 96
2020-03-25 02:00:00 11.3 6 Este 7 Este 0 -- -- 95
2020-03-25 01:00:00 12.6 3 Sudoeste 6 Sur 0 -- -- 94
2020-03-25 00:00:00 12.4 0 Calma 9 Sudeste 0 -- -- 92
2020-03-24 23:00:00 13.4 6 Sudeste 14 Sudeste 0 -- -- 90
2020-03-24 22:00:00 13.8 11 Sur 17 Sur 0 -- -- 92
2020-03-24 21:00:00 14.6 12 Sur 21 Sudeste 0 -- -- 89
2020-03-24 20:00:00 15.1 7 Sur 15 Sur 0 -- -- 88
2020-03-24 19:00:00 15.6 11 Sur 19 Sur 0 -- -- 85
2020-03-24 18:00:00 16.6 11 Sur 20 Sur 0 -- -- 82
2020-03-24 17:00:00 18.6 6 Sudoeste 14 Sur 0 -- -- 73
2020-03-24 16:00:00 18.6 3 Sudeste 18 Este 0 -- -- 64
2020-03-24 15:00:00 18.3 9 Nordeste 22 Norte 0 -- -- 65
2020-03-24 14:00:00 16.7 8 Este 18 Nordeste 0 -- -- 70
2020-03-24 13:00:00 15.2 7 Nordeste 19 Nordeste 0.2 -- -- 82
2020-03-24 12:00:00 13.7 8 Nordeste 20 Nordeste 0 -- -- 85
2020-03-24 11:00:00 14.3 7 Este 14 Este 0 -- -- 89
2020-03-24 10:00:00 11.1 5 Nordeste 17 Nordeste 0.2 -- -- 95
2020-03-24 09:00:00 -- -- -- -- -- -- -- -- --
2020-03-24 08:00:00 -- 5 Norte 18 Norte -- -- -- --
2020-03-24 07:00:00 -- 11 Nordeste 20 Nordeste -- -- -- --
2020-03-24 06:00:00 10 10 Nordeste 21 Nordeste 0 -- -- 96
2020-03-24 05:00:00 10 10 Nordeste 21 Nordeste 0 -- -- 95
2020-03-24 04:00:00 10 10 Nordeste 22 Nordeste 0 -- -- 93
2020-03-24 03:00:00 10.7 10 Nordeste 19 Nordeste 0 -- -- 91
2020-03-24 02:00:00 10.8 6 Nordeste 17 Nordeste 0 -- -- 92
2020-03-24 01:00:00 10.9 9 Nordeste 20 Este 0 -- -- 93
2020-03-24 00:00:00 11.1 10 Nordeste 19 Nordeste 0.6 -- -- 92
2020-03-23 23:00:00 11.6 4 Sudeste 11 Este 0.8 -- -- 90
2020-03-23 22:00:00 11.8 3 Sudeste 8 Norte 0 -- -- 86
2020-03-23 21:00:00 11.7 4 Nordeste 9 Sudeste 0 -- -- 88
2020-03-23 20:00:00 13.2 5 Sudeste 15 Sudeste 0 -- -- 80
2020-03-23 19:00:00 15.1 8 Sudeste 15 Sudeste 0 -- -- 70
2020-03-23 18:00:00 16.3 7 Sudeste 21 Sudeste 0 -- -- 61
2020-03-23 17:00:00 14.3 13 Sudeste 27 Sudeste 0 -- -- 68
2020-03-23 16:00:00 16.9 13 Este 27 Este 0 -- -- 66
2020-03-23 15:00:00 18.3 11 Norte 24 Norte 0 -- -- 55
2020-03-23 14:00:00 18.6 10 Nordeste 21 Nordeste 0 -- -- 59
2020-03-23 13:00:00 17.4 6 Nordeste 16 Nordeste 0 -- -- 68
2020-03-23 12:00:00 15.6 9 Norte 17 Norte 0 -- -- 72
2020-03-23 11:00:00 14.3 7 Nordeste 18 Nordeste 0 -- -- 76
2020-03-23 10:00:00 13 6 Nordeste 13 Este 0 -- -- 80
2020-03-23 09:00:00 9.1 4 Nordeste 10 Este 0 -- -- 97
2020-03-23 08:00:00 6.4 4 Este 6 Este 0 -- -- 98
2020-03-23 07:00:00 6.3 2 Este 6 Este 0 -- -- 97
2020-03-23 06:00:00 6.9 5 Sudeste 7 Este 0 -- -- 96
2020-03-23 05:00:00 7.3 3 Este 9 Sudeste 0.2 -- -- 96
2020-03-23 04:00:00 8.1 6 Sudeste 9 Sudeste 0 -- -- 97
2020-03-23 03:00:00 8 2 Sur 4 Sudeste 0 -- -- 96
2020-03-23 02:00:00 8.2 4 Sur 5 Sur 0 -- -- 96
2020-03-23 01:00:00 8.8 3 Sudoeste 4 Sur 0 -- -- 96
2020-03-23 00:00:00 8.7 2 Sur 6 Sur 0 -- -- 95
2020-03-22 23:00:00 8.5 2 Sudoeste 4 Sudoeste 0 -- -- 94
2020-03-22 22:00:00 9.6 2 Sudoeste 4 Sudoeste 0 -- -- 92
2020-03-22 21:00:00 10.5 2 Sur 6 Sudoeste 0 -- -- 89
2020-03-22 20:00:00 12.5 0 Calma 10 Noroeste 0 -- -- 83
2020-03-22 19:00:00 14.5 3 Noroeste 12 Norte 0 -- -- 72
2020-03-22 18:00:00 15.3 7 Noroeste 14 Noroeste 0 -- -- 71
2020-03-22 17:00:00 14.7 9 Noroeste 18 Norte 0 -- -- 74
2020-03-22 16:00:00 14.5 6 Noroeste 16 Oeste 0 -- -- 70
2020-03-22 15:00:00 15.1 6 Noroeste 15 Noroeste 0 -- -- 68
2020-03-22 14:00:00 14.9 2 Norte 13 Oeste 0.2 -- -- 74
2020-03-22 13:00:00 13.8 6 Noroeste 11 Oeste 0 -- -- 73
2020-03-22 12:00:00 13.7 2 Este 10 Sur 0 -- -- 74
2020-03-22 11:00:00 12.9 3 Sur 8 Sur 0 -- -- 78
2020-03-22 10:00:00 11.7 5 Sur 12 Sur 0 -- -- 87
2020-03-22 09:00:00 9.7 3 Sur 10 Sudeste 0 -- -- 97
2020-03-22 08:00:00 -- -- -- -- -- -- -- -- --
2020-03-22 07:00:00 -- 7 Sudeste 12 Sudeste -- -- -- --
2020-03-22 06:00:00 -- 4 Sudeste 11 Sur -- -- -- --
2020-03-22 05:00:00 9 7 Sudeste 12 Sur 0 -- -- 95
2020-03-22 04:00:00 9.2 9 Sur 17 Sur 0 -- -- 95
2020-03-22 03:00:00 9.4 8 Sur 15 Sur 0.2 -- -- 94
2020-03-22 02:00:00 9.9 7 Sur 28 Sur 3 -- -- 93
2020-03-22 01:00:00 9.9 6 Sur 17 Sur 2.4 -- -- 93
2020-03-22 00:00:00 10.4 11 Sur 24 Sur 2 -- -- 91
2020-03-21 23:00:00 10.8 4 Sudoeste 15 Sudeste 0 -- -- 86
2020-03-21 22:00:00 10.5 8 Sur 18 Sur 0 -- -- 80
2020-03-21 21:00:00 9.1 12 Sudeste 16 Sudeste 0 -- -- 89
2020-03-21 20:00:00 9.6 4 Sur 30 Oeste 0 -- -- 89
2020-03-21 19:00:00 10.8 13 Noroeste 32 Noroeste 0.2 -- -- 83
2020-03-21 18:00:00 14.4 10 Oeste 30 Sur 0 -- -- 72
2020-03-21 17:00:00 13.3 18 Sur 49 Sur 0.4 -- -- 86
2020-03-21 16:00:00 14.1 33 Sur 50 Sur 0 -- -- 81
2020-03-21 15:00:00 12.2 22 Sur 41 Sur 0.2 -- -- 88
2020-03-21 14:00:00 11.9 19 Sudeste 32 Sudeste 1 -- -- 91
2020-03-21 13:00:00 12 11 Sur 23 Sur 3.2 -- -- 92
2020-03-21 12:00:00 13.4 10 Sur 26 Sur 0.2 -- -- 76
2020-03-21 11:00:00 14.6 15 Sur 26 Sur 0 -- -- 76
2020-03-21 10:00:00 12.7 12 Sur 19 Sur 0 -- -- 86
2020-03-21 09:00:00 10.9 10 Sudeste 15 Sudeste 0 -- -- 93
2020-03-21 08:00:00 -- 6 Sudeste -- -- -- -- -- --
2020-03-21 07:00:00 -- 8 Sur 20 Sur -- -- -- --
2020-03-21 06:00:00 10.2 4 Sur 9 Sur 0.2 -- -- 96
2020-03-21 05:00:00 10.3 3 Sur 12 Sudeste 0 -- -- 95
2020-03-21 04:00:00 10.4 3 Sur 11 Sudoeste 0 -- -- 95
2020-03-21 03:00:00 11.1 5 Sur 10 Oeste 0 -- -- 95
2020-03-21 02:00:00 11.2 5 Sudoeste 17 Noroeste 0.8 -- -- 95
2020-03-21 01:00:00 12 5 Sudoeste 22 Oeste 3 -- -- 94
2020-03-21 00:00:00 13.3 12 Sudoeste 36 Sur 3.4 -- -- 91
2020-03-20 23:00:00 14.7 23 Sur 41 Sur 0.6 -- -- 85
2020-03-20 22:00:00 14 18 Sur 33 Sur 3.2 -- -- 87
2020-03-20 21:00:00 14.8 19 Sur 36 Sudeste 0.2 -- -- 80
2020-03-20 20:00:00 16.2 21 Sur 37 Sudeste 0 -- -- 66
2020-03-20 19:00:00 16.9 17 Sudeste 29 Sudeste 0 -- -- 64
2020-03-20 18:00:00 18.1 17 Sudeste 31 Sudeste 0 -- -- 60
2020-03-20 17:00:00 18.6 14 Sudeste 28 Sudeste 0 -- -- 59
2020-03-20 16:00:00 19.1 14 Sudeste 30 Sudeste 0 -- -- 59
2020-03-20 15:00:00 18.4 18 Sudeste 33 Sur 0 -- -- 62
2020-03-20 14:00:00 19 21 Sudeste 32 Sudeste 0 -- -- 60
2020-03-20 13:00:00 19.1 5 Este 21 Este 0 -- -- 54
2020-03-20 12:00:00 18.3 10 Sudeste 19 Sudeste 0 -- -- 57
2020-03-20 11:00:00 16.6 5 Sudeste 10 Sudeste 0 -- -- 67
2020-03-20 10:00:00 14.3 2 Sudeste 9 Este 0 -- -- 77
2020-03-20 09:00:00 13 4 Sudeste 11 Sudeste 0 -- -- 79
2020-03-20 08:00:00 -- 3 Este 11 Sudeste -- -- -- --
2020-03-20 07:00:00 -- 4 Sudeste 9 Sudeste -- -- -- --
2020-03-20 06:00:00 11.9 6 Sudeste 10 Este 0 -- -- 86
2020-03-20 05:00:00 11.8 4 Este 11 Este 0 -- -- 86
2020-03-20 04:00:00 12.6 6 Sudeste 17 Sudeste 0 -- -- 83
2020-03-20 03:00:00 13.9 12 Sudeste 26 Sudeste 0 -- -- 76
2020-03-20 02:00:00 14.7 8 Sudeste 16 Sur 0 -- -- 73
2020-03-20 01:00:00 14.9 5 Sur 17 Sur 0 -- -- 72
2020-03-20 00:00:00 15.6 13 Sudeste 27 Sur 0 -- -- 69
2020-03-19 23:00:00 15.6 15 Sudeste 24 Sudeste 0 -- -- 67
2020-03-19 22:00:00 15.3 9 Sur 14 Sur 0 -- -- 69
2020-03-19 21:00:00 16 10 Sur 20 Sudeste 0 -- -- 67
2020-03-19 20:00:00 17.2 10 Sur 18 Sur 0 -- -- 63
2020-03-19 19:00:00 18.3 10 Sudeste 17 Sudeste 0 -- -- 60
2020-03-19 18:00:00 19 12 Sudeste 24 Sudeste 0 -- -- 57
2020-03-19 17:00:00 20.1 17 Sudeste 27 Sudeste 0 -- -- 54
2020-03-19 16:00:00 20.3 11 Sur 24 Sudeste 0 -- -- 52
2020-03-19 15:00:00 21.3 2 Sur 9 Sudoeste 0 -- -- 50
2020-03-19 14:00:00 21 4 Noroeste 13 Noroeste 0 -- -- 53
2020-03-19 13:00:00 19.7 5 Norte 13 Nordeste 0 -- -- 54
2020-03-19 12:00:00 17.9 5 Norte 11 Norte 0 -- -- 66
2020-03-19 11:00:00 16.7 2 Norte 9 Noroeste 0 -- -- 69
2020-03-19 10:00:00 14.7 3 Noroeste 51 Sudoeste 0 -- -- 76
2020-03-19 09:00:00 -- 0 Calma 14 Noroeste -- -- -- --
2020-03-19 08:00:00 -- 3 Sudeste 24 Sudeste -- -- -- --
2020-03-19 07:00:00 -- 6 Sudeste 13 Este -- -- -- --
2020-03-19 06:00:00 12.7 5 Este 17 Sudeste 0 -- -- 80
2020-03-19 05:00:00 12.6 8 Sudeste 14 Sudeste 0 -- -- 81
2020-03-19 04:00:00 14.8 7 Sudeste 25 Sudeste 0 -- -- 70
2020-03-19 03:00:00 15.6 10 Sudeste 19 Sur 0 -- -- 67
2020-03-19 02:00:00 15.3 4 Sur 13 Sur 0 -- -- 67
2020-03-19 01:00:00 16 10 Sudeste 32 Sudeste 0 -- -- 64
2020-03-19 00:00:00 16.2 21 Sudeste 38 Sudeste 0 -- -- 64
2020-03-18 23:00:00 16.6 21 Sudeste 31 Sudeste 0 -- -- 61
2020-03-18 22:00:00 15.7 8 Sudeste 12 Sur 0 -- -- 67
2020-03-18 21:00:00 16.7 5 Sudeste 12 Sudeste 0 -- -- 67
2020-03-18 20:00:00 18.2 8 Sur 14 Sudeste 0 -- -- 61
2020-03-18 19:00:00 19.4 11 Sudeste 22 Sudeste 0 -- -- 56
2020-03-18 18:00:00 20.6 17 Sudeste 25 Sudeste 0 -- -- 53
2020-03-18 17:00:00 22.2 13 Sur 26 Sudeste 0 -- -- 50
2020-03-18 16:00:00 23.3 11 Sudeste 31 Sudeste 0 -- -- 48
2020-03-18 15:00:00 23.2 17 Este 30 Sudeste 0 -- -- 48
2020-03-18 14:00:00 23.1 6 Norte 15 Sudeste 0 -- -- 50
2020-03-18 13:00:00 22 9 Sur 21 Sur 0 -- -- 54
2020-03-18 12:00:00 20.7 5 Sur 15 Este 0 -- -- 60
2020-03-18 11:00:00 18 10 Nordeste 20 Nordeste 0 -- -- 72
2020-03-18 10:00:00 14.5 3 Norte 10 Nordeste 0 -- -- 81
2020-03-18 09:00:00 -- 5 Nordeste 14 Nordeste -- -- -- --
2020-03-18 08:00:00 13.1 6 Este 24 Nordeste 0 -- -- 82
2020-03-18 07:00:00 13.1 6 Nordeste 20 Este 0 -- -- 81
2020-03-18 06:00:00 14.2 9 Nordeste 21 Nordeste 0 -- -- 78
2020-03-18 05:00:00 15.7 5 Este 29 Este 0 -- -- 72
2020-03-18 04:00:00 16.6 9 Este 32 Este 0 -- -- 68
2020-03-18 03:00:00 14.7 9 Este 28 Nordeste 0 -- -- 76
2020-03-18 02:00:00 13 5 Sur 17 Este 0 -- -- 76
2020-03-18 01:00:00 12.4 6 Nordeste 12 Nordeste 0 -- -- 78
2020-03-18 00:00:00 12.5 4 Nordeste 13 Este 0 -- -- 77
2020-03-17 23:00:00 13.1 6 Nordeste 15 Nordeste 0 -- -- 76
2020-03-17 22:00:00 14.3 4 Este 19 Este 0 -- -- 68
2020-03-17 21:00:00 14.5 8 Este 25 Este 0 -- -- 63
2020-03-17 20:00:00 14.7 9 Nordeste 21 Nordeste 0 -- -- 63
2020-03-17 19:00:00 15.7 8 Nordeste 28 Este 0 -- -- 58
2020-03-17 18:00:00 16.4 12 Este 30 Sudeste 0 -- -- 52
2020-03-17 17:00:00 16.6 9 Nordeste 28 Este 0 -- -- 58
2020-03-17 16:00:00 17.4 14 Este 29 Este 0 -- -- 56
2020-03-17 15:00:00 17.5 17 Sudeste 32 Sudeste 0 -- -- 44
2020-03-17 14:00:00 16.1 8 Sudeste 18 Sudeste 0 -- -- 56
2020-03-17 13:00:00 13.7 13 Nordeste 23 Nordeste 0 -- -- 75
2020-03-17 12:00:00 12.6 10 Nordeste 23 Nordeste 0 -- -- 74
2020-03-17 11:00:00 9.9 10 Sudeste 38 Sudeste 0.6 -- -- 83
2020-03-17 10:00:00 -- 24 Sudeste 36 Sudeste -- -- -- --
2020-03-17 09:00:00 8.2 8 Este 16 Este 0.2 -- -- 94
2020-03-17 08:00:00 7.8 3 Nordeste 19 Sudeste 1.8 -- -- 94
2020-03-17 07:00:00 7.6 11 Sudeste 17 Sudeste 0.6 -- -- 93
2020-03-17 06:00:00 7.7 8 Sudeste 19 Sudeste 0.4 -- -- 94
2020-03-17 05:00:00 7.5 11 Sudeste 20 Sudeste 1.6 -- -- 94
2020-03-17 04:00:00 7.7 9 Sur 17 Sur 0.8 -- -- 93
2020-03-17 03:00:00 7.7 6 Sur 15 Sur 0.2 -- -- 93
2020-03-17 02:00:00 7.8 8 Sur 15 Noroeste 3.2 -- -- 92
2020-03-17 01:00:00 8.5 5 Noroeste 21 Noroeste 3.4 -- -- 90
2020-03-17 00:00:00 9.8 2 Sudeste 6 Este 0.8 -- -- 82
2020-03-16 23:00:00 10.8 3 Sudeste 9 Nordeste 0 -- -- 64
2020-03-16 22:00:00 11.4 4 Nordeste 23 Norte 0 -- -- 57
2020-03-16 21:00:00 11.7 13 Norte 33 Norte 0 -- -- 54
2020-03-16 20:00:00 13 27 Norte 44 Noroeste 0 -- -- 51
2020-03-16 19:00:00 14.4 19 Norte 29 Norte 0 -- -- 41
2020-03-16 18:00:00 15.3 15 Noroeste 31 Noroeste 0 -- -- 38
2020-03-16 17:00:00 15.6 18 Noroeste 34 Noroeste 0 -- -- 38
2020-03-16 16:00:00 15.9 20 Noroeste 36 Noroeste 0 -- -- 37
2020-03-16 15:00:00 16.5 19 Noroeste 42 Noroeste 0 -- -- 38
2020-03-16 14:00:00 15.9 17 Noroeste 41 Noroeste 0 -- -- 39
2020-03-16 13:00:00 14.3 19 Noroeste 36 Noroeste 0 -- -- 45
2020-03-16 12:00:00 12.9 13 Noroeste 30 Oeste 0 -- -- 49
2020-03-16 11:00:00 11.4 13 Noroeste 23 Noroeste 0 -- -- 54
2020-03-16 10:00:00 10.3 11 Noroeste 19 Noroeste 0 -- -- 57
2020-03-16 09:00:00 8.9 8 Noroeste 18 Noroeste 0 -- -- 60
2020-03-16 08:00:00 7.9 12 Norte 24 Norte 0 -- -- 60
2020-03-16 07:00:00 9.8 15 Norte 25 Noroeste 0 -- -- 54
2020-03-16 06:00:00 10.5 13 Norte 28 Noroeste 0 -- -- 53
2020-03-16 05:00:00 11.6 16 Norte 28 Norte 0 -- -- 51
2020-03-16 04:00:00 12.5 13 Norte 26 Noroeste 0 -- -- 57
2020-03-16 03:00:00 13.6 14 Norte 22 Noroeste 0 -- -- 70
2020-03-16 02:00:00 14.1 12 Noroeste 19 Noroeste 0 -- -- 81
2020-03-16 01:00:00 15.3 4 Sudoeste 12 Sudoeste 0.2 -- -- 89
2020-03-16 00:00:00 15.2 4 Sudoeste 12 Sudoeste 0 -- -- 86
2020-03-15 23:00:00 14.8 2 Sudoeste 10 Sudoeste 0 -- -- 86
2020-03-15 22:00:00 14.7 4 Sudoeste 10 Sudoeste 0 -- -- 83
2020-03-15 21:00:00 15.3 3 Sudoeste 21 Noroeste 0 -- -- 80
2020-03-15 20:00:00 16.5 13 Oeste 28 Noroeste 0 -- -- 74
2020-03-15 19:00:00 19.5 6 Oeste 22 Sur 0 -- -- 65
2020-03-15 18:00:00 22.2 12 Sudoeste 26 Sur 0 -- -- 50
2020-03-15 17:00:00 23.7 6 Sudoeste 20 Noroeste 0 -- -- 48
2020-03-15 16:00:00 22.8 12 Noroeste 28 Noroeste 0 -- -- 49
2020-03-15 15:00:00 23.8 9 Sur 19 Sur 0 -- -- 46
2020-03-15 14:00:00 21.8 5 Sudeste 13 Sudeste 0 -- -- 56
2020-03-15 13:00:00 20.8 6 Sudoeste 14 Sudeste 0 -- -- 58
2020-03-15 12:00:00 19.4 5 Este 14 Sudeste 0 -- -- 64
2020-03-15 11:00:00 17.5 7 Este 15 Nordeste 0 -- -- 71
2020-03-15 10:00:00 15.6 6 Nordeste 12 Nordeste 0 -- -- 80
2020-03-15 09:00:00 13.1 4 Nordeste 8 Este 0 -- -- 91
2020-03-15 08:00:00 11.3 4 Este 6 Sudeste 0 -- -- 90
2020-03-15 07:00:00 11.9 5 Este 7 Este 0 -- -- 88
2020-03-15 06:00:00 12.3 0 Calma 8 Noroeste 0 -- -- 86
2020-03-15 05:00:00 13.2 4 Oeste 14 Sur 0 -- -- 78
2020-03-15 04:00:00 13.1 9 Sur 15 Sudeste 0 -- -- 85
2020-03-15 03:00:00 11.9 5 Sur 10 Sur 0 -- -- 90
2020-03-15 02:00:00 13.3 3 Sur 12 Sur 0 -- -- 87
2020-03-15 01:00:00 13.3 5 Sur 8 Sudeste 0 -- -- 89
2020-03-15 00:00:00 12.8 2 Sudoeste 6 Sur 0 -- -- 88
2020-03-14 23:00:00 13.5 4 Sur 5 Sudoeste 0 -- -- 84
2020-03-14 22:00:00 14.7 3 Sudoeste 8 Oeste 0 -- -- 81
2020-03-14 21:00:00 16.2 4 Sudoeste 8 Sudoeste 0 -- -- 75
2020-03-14 20:00:00 18.4 3 Sudoeste 10 Oeste 0 -- -- 67
2020-03-14 19:00:00 21.5 3 Norte 7 Noroeste 0 -- -- 56
2020-03-14 18:00:00 22.8 4 Norte 14 Noroeste 0 -- -- 52
2020-03-14 17:00:00 23.1 4 Noroeste 13 Norte 0 -- -- 53
2020-03-14 16:00:00 22.6 5 Norte 14 Norte 0 -- -- 54
2020-03-14 15:00:00 21.3 5 Noroeste 14 Nordeste 0 -- -- 59
2020-03-14 14:00:00 19.9 5 Norte 14 Norte 0 -- -- 65
2020-03-14 13:00:00 18 5 Norte 13 Noroeste 0 -- -- 72
2020-03-14 12:00:00 16.9 6 Norte 12 Norte 0 -- -- 76
2020-03-14 11:00:00 15.6 4 Sur 9 Sudoeste 0 -- -- 80
2020-03-14 10:00:00 14.3 3 Oeste 6 Sudoeste 0 -- -- 92
2020-03-14 09:00:00 12.4 3 Sudeste 6 Sudeste 0 -- -- 97
2020-03-14 08:00:00 11.6 2 Este 6 Sudeste 0 -- -- 97
2020-03-14 07:00:00 11.4 0 Calma 4 Este 0 -- -- 97
2020-03-14 06:00:00 11.1 0 Calma 4 Noroeste 0 -- -- 96
2020-03-14 05:00:00 10.3 2 Noroeste 3 Noroeste 0 -- -- 95
2020-03-14 04:00:00 10.2 2 Sur 10 Sur 0 -- -- 95
2020-03-14 03:00:00 11.5 7 Sudeste 13 Sudeste 0 -- -- 95
2020-03-14 02:00:00 11.6 6 Sur 11 Sudeste 0 -- -- 94
2020-03-14 01:00:00 12.3 5 Sur 8 Sur 0 -- -- 93
2020-03-14 00:00:00 12.9 3 Sur 8 Sudoeste 0 -- -- 91
2020-03-13 23:00:00 12.7 3 Sudoeste 5 Oeste 0 -- -- 89
2020-03-13 22:00:00 13.6 3 Sudoeste 8 Oeste 0 -- -- 86
2020-03-13 21:00:00 14.8 3 Oeste 10 Sudoeste 0 -- -- 78
2020-03-13 20:00:00 16.7 2 Sudoeste 16 Oeste 0 -- -- 71
2020-03-13 19:00:00 18.7 8 Oeste 22 Oeste 0 -- -- 65
2020-03-13 18:00:00 20.5 16 Oeste 25 Oeste 0 -- -- 60
2020-03-13 17:00:00 22.7 11 Oeste 24 Noroeste 0 -- -- 54
2020-03-13 16:00:00 23.1 7 Sur 18 Noroeste 0 -- -- 52
2020-03-13 15:00:00 22 9 Noroeste 20 Oeste 0 -- -- 55
2020-03-13 14:00:00 20.8 7 Sudoeste 15 Noroeste 0 -- -- 56
2020-03-13 13:00:00 19 5 Sudoeste 14 Sur 0 -- -- 63
2020-03-13 12:00:00 17.3 6 Sur 15 Sur 0 -- -- 69
2020-03-13 11:00:00 15.9 8 Sur 18 Sur 0 -- -- 74
2020-03-13 10:00:00 14 6 Sudoeste 17 Sur 0 -- -- 82
2020-03-13 09:00:00 13.6 6 Sudoeste 15 Sur 0 -- -- 85
2020-03-13 08:00:00 13.4 2 Sudoeste 13 Sur 0 -- -- 87
2020-03-13 07:00:00 13.5 2 Sudoeste 9 Sur 0 -- -- 91
2020-03-13 06:00:00 13.3 5 Sudoeste 10 Sudoeste 0 -- -- 94
2020-03-13 05:00:00 13 3 Oeste 16 Sudoeste 0 -- -- 96
2020-03-13 04:00:00 13.2 8 Sur 11 Sudoeste 0 -- -- 96
2020-03-13 03:00:00 13.1 0 Calma 5 Oeste 0 -- -- 95
2020-03-13 02:00:00 11.1 3 Sudoeste 6 Sudoeste 0 -- -- 92
2020-03-13 01:00:00 12.9 4 Sudoeste 5 Sudoeste 0 -- -- 92
2020-03-13 00:00:00 14.3 3 Sur 13 Sudeste 0 -- -- 86
2020-03-12 23:00:00 14.3 8 Sur 10 Sur 0 -- -- 92
2020-03-12 22:00:00 13.5 4 Sur 8 Sur 0 -- -- 88
2020-03-12 21:00:00 15.1 2 Sudeste 9 Oeste 0 -- -- 83
2020-03-12 20:00:00 16.8 4 Oeste 19 Oeste 0 -- -- 78
2020-03-12 19:00:00 19.5 3 Oeste 13 Oeste 0 -- -- 64
2020-03-12 18:00:00 20.2 4 Oeste 29 Oeste 0 -- -- 65
2020-03-12 17:00:00 23.9 8 Oeste 26 Oeste 0 -- -- 48
2020-03-12 16:00:00 25.2 12 Oeste 25 Oeste 0 -- -- 50
2020-03-12 15:00:00 24.7 12 Oeste 21 Oeste 0 -- -- 51
2020-03-12 14:00:00 23.8 7 Oeste 17 Oeste 0 -- -- 52
2020-03-12 13:00:00 22 8 Sur 15 Sur 0 -- -- 55
2020-03-12 12:00:00 18.4 4 Sudeste 9 Noroeste 0 -- -- 68
2020-03-12 11:00:00 14.3 3 Noroeste 8 Noroeste 0 -- -- 94
2020-03-12 10:00:00 12.5 4 Noroeste 8 Noroeste 0 -- -- 96
2020-03-12 09:00:00 12.1 3 Noroeste 5 Noroeste 0 -- -- 95
2020-03-12 08:00:00 11.1 0 Calma 8 Oeste 0 -- -- 92
2020-03-12 07:00:00 12.1 4 Oeste 12 Oeste 0 -- -- 73
2020-03-12 06:00:00 11.4 3 Oeste 9 Sudoeste 0 -- -- 69
2020-03-12 05:00:00 14.4 3 Noroeste 22 Sudeste 0 -- -- 56
2020-03-12 04:00:00 13.4 10 Sudeste 18 Sudeste 0 -- -- 62
2020-03-12 03:00:00 11 3 Sudeste 5 Este 0 -- -- 72
2020-03-12 02:00:00 13.3 4 Este 6 Nordeste 0 -- -- 63
2020-03-12 01:00:00 15.3 0 Calma 15 Sudeste 0 -- -- 57
2020-03-12 00:00:00 19.3 12 Sur 19 Sudeste 0 -- -- 43
2020-03-11 23:00:00 19.2 13 Sur 22 Sudeste 0 -- -- 44
2020-03-11 22:00:00 19.7 12 Sur 19 Sur 0 -- -- 44
2020-03-11 21:00:00 20.7 16 Sur 21 Sur 0 -- -- 42
2020-03-11 20:00:00 22.7 13 Sur 18 Sur 0 -- -- 41
2020-03-11 19:00:00 25.4 7 Sur 18 Sur 0 -- -- 37
2020-03-11 18:00:00 28.6 8 Sur 12 Sur 0 -- -- 33
2020-03-11 17:00:00 29.4 4 Sudoeste 12 Noroeste 0 -- -- 29
2020-03-11 16:00:00 29.8 4 Sur 10 Sudeste 0 -- -- 30
2020-03-11 15:00:00 29.4 5 Sudeste 14 Nordeste 0 -- -- 31
2020-03-11 14:00:00 29.1 5 Norte 14 Nordeste 0 -- -- 32
2020-03-11 13:00:00 26.5 4 Nordeste 10 Nordeste 0 -- -- 36
2020-03-11 12:00:00 24.6 4 Norte 9 Nordeste 0 -- -- 38
2020-03-11 11:00:00 22 6 Sudeste 17 Sudeste 0 -- -- 44
2020-03-11 10:00:00 17.9 8 Sudeste 16 Sudeste 0 -- -- 56
2020-03-11 09:00:00 13.5 6 Sudeste 12 Este 0 -- -- 69
2020-03-11 08:00:00 10 8 Este 10 Este 0 -- -- 78
2020-03-11 07:00:00 9.4 5 Este 7 Este 0 -- -- 81
2020-03-11 06:00:00 10 4 Este 9 Este 0 -- -- 75
2020-03-11 05:00:00 11.4 4 Sudeste 10 Sudeste 0 -- -- 70
2020-03-11 04:00:00 10.9 7 Este 10 Este 0 -- -- 72
2020-03-11 03:00:00 11.1 9 Este 12 Este 0 -- -- 68
2020-03-11 02:00:00 11.3 0 Calma 8 Este 0 -- -- 71
2020-03-11 01:00:00 13 0 Calma 6 Noroeste 0 -- -- 65
2020-03-11 00:00:00 14.9 3 Noroeste 11 Noroeste 0 -- -- 58
2020-03-10 23:00:00 18 9 Sur 21 Sudeste 0 -- -- 49
2020-03-10 22:00:00 17.7 12 Sudeste 22 Sudeste 0 -- -- 50
2020-03-10 21:00:00 18.7 16 Sudeste 22 Sudeste 0 -- -- 48
2020-03-10 20:00:00 20.4 15 Sudeste 22 Sudeste 0 -- -- 46
2020-03-10 19:00:00 26 3 Sudeste 10 Norte 0 -- -- 34
2020-03-10 18:00:00 27.4 6 Norte 12 Noroeste 0 -- -- 30
2020-03-10 17:00:00 28 4 Sur 14 Este 0 -- -- 28
2020-03-10 16:00:00 27.7 5 Norte 17 Norte 0 -- -- 27
2020-03-10 15:00:00 26.9 6 Norte 13 Norte 0 -- -- 28
2020-03-10 14:00:00 25.8 5 Este 18 Este 0 -- -- 31
2020-03-10 13:00:00 24.1 9 Nordeste 23 Norte 0 -- -- 35
2020-03-10 12:00:00 21.3 13 Nordeste 28 Nordeste 0 -- -- 40
2020-03-10 11:00:00 18.4 16 Nordeste 27 Nordeste 0 -- -- 46
2020-03-10 10:00:00 15.7 15 Nordeste 31 Nordeste 0 -- -- 52
2020-03-10 09:00:00 12.6 12 Nordeste 26 Nordeste 0 -- -- 60
2020-03-10 08:00:00 10.6 8 Este 17 Nordeste 0 -- -- 67
2020-03-10 07:00:00 11 6 Nordeste 14 Nordeste 0 -- -- 65
2020-03-10 06:00:00 11.1 5 Nordeste 20 Nordeste 0 -- -- 66
2020-03-10 05:00:00 7.6 3 Nordeste 10 Nordeste 0 -- -- 78
2020-03-10 04:00:00 8.7 0 Calma 7 Norte 0 -- -- 75
2020-03-10 03:00:00 10.2 4 Nordeste 9 Nordeste 0 -- -- 70
2020-03-10 02:00:00 9 3 Este 7 Este 0 -- -- 78
2020-03-10 01:00:00 10.5 0 Calma 5 Nordeste 0 -- -- 74
2020-03-10 00:00:00 12 0 Calma 7 Nordeste 0 -- -- 70
2020-03-09 23:00:00 11.1 4 Este 6 Este 0 -- -- 72
2020-03-09 22:00:00 13.3 3 Sudeste 10 Sudoeste 0 -- -- 65
2020-03-09 21:00:00 15.6 3 Sudoeste 8 Sur 0 -- -- 62
2020-03-09 20:00:00 17.7 4 Sur 12 Sudoeste 0 -- -- 57
2020-03-09 19:00:00 21 3 Sudoeste 19 Noroeste 0 -- -- 45
2020-03-09 18:00:00 23.7 10 Norte 27 Norte 0 -- -- 29
2020-03-09 17:00:00 24.1 13 Norte 29 Norte 0 -- -- 29
2020-03-09 16:00:00 23.8 15 Norte 27 Noroeste 0 -- -- 27
2020-03-09 15:00:00 23.2 13 Norte 26 Norte 0 -- -- 36
2020-03-09 14:00:00 21.9 10 Norte 23 Norte 0 -- -- 40
2020-03-09 13:00:00 20.5 12 Norte 23 Norte 0 -- -- 46
2020-03-09 12:00:00 18.9 12 Nordeste 22 Nordeste 0 -- -- 54
2020-03-09 11:00:00 16.9 10 Nordeste 19 Norte 0 -- -- 62
2020-03-09 10:00:00 14.1 10 Norte 19 Nordeste 0 -- -- 69
2020-03-09 09:00:00 11 4 Este 10 Este 0 -- -- 75
2020-03-09 08:00:00 9.5 4 Nordeste 12 Nordeste 0 -- -- 77
2020-03-09 07:00:00 9.4 5 Este 10 Este 0 -- -- 76
2020-03-09 06:00:00 9.1 6 Este 9 Este 0 -- -- 72
2020-03-09 05:00:00 9.4 5 Este 11 Nordeste 0 -- -- 71
2020-03-09 04:00:00 10.3 7 Este 17 Norte 0 -- -- 68
2020-03-09 03:00:00 7.7 3 Norte 5 Norte 0 -- -- 77
2020-03-09 02:00:00 8.2 3 Este 5 Nordeste 0 -- -- 75
2020-03-09 01:00:00 10 2 Sudeste 4 Oeste 0 -- -- 70
2020-03-09 00:00:00 13.4 2 Oeste 12 Sudoeste 0 -- -- 60
2020-03-08 23:00:00 14.7 5 Sudoeste 11 Sudoeste 0 -- -- 57
2020-03-08 22:00:00 14.9 4 Sudoeste 8 Sudoeste 0 -- -- 55
2020-03-08 21:00:00 15.8 4 Sudoeste 8 Sudoeste 0 -- -- 50
2020-03-08 20:00:00 18.3 3 Sur 17 Oeste 0 -- -- 42
2020-03-08 19:00:00 21.3 3 Noroeste 17 Noroeste 0 -- -- 33
2020-03-08 18:00:00 22.3 13 Noroeste 19 Noroeste 0 -- -- 30
2020-03-08 17:00:00 24 9 Norte 19 Norte 0 -- -- 27
2020-03-08 16:00:00 24.2 8 Nordeste 18 Norte 0 -- -- 28
2020-03-08 15:00:00 23.6 6 Norte 18 Nordeste 0 -- -- 31
2020-03-08 14:00:00 22.5 6 Nordeste 18 Nordeste 0 -- -- 29
2020-03-08 13:00:00 20.9 9 Nordeste 19 Nordeste 0 -- -- 37
2020-03-08 12:00:00 18.8 9 Nordeste 18 Norte 0 -- -- 43
2020-03-08 11:00:00 15.7 7 Nordeste 16 Norte 0 -- -- 49
2020-03-08 10:00:00 10.8 8 Norte 14 Este 0 -- -- 64
2020-03-08 09:00:00 7.6 6 Sudeste 10 Este 0 -- -- 72
2020-03-08 08:00:00 6.7 0 Calma 6 Nordeste 0 -- -- 70
2020-03-08 07:00:00 7.3 4 Este 10 Este 0 -- -- 67
2020-03-08 06:00:00 7.4 2 Nordeste 9 Este 0 -- -- 66
2020-03-08 05:00:00 8.4 4 Este 9 Este 0 -- -- 62
2020-03-08 04:00:00 8.8 6 Este 10 Este 0 -- -- 61
2020-03-08 03:00:00 9 6 Este 10 Este 0 -- -- 60
2020-03-08 02:00:00 9.6 6 Este 9 Este 0 -- -- 57
2020-03-08 01:00:00 10.5 6 Este 11 Este 0 -- -- 54
2020-03-08 00:00:00 11.5 8 Este 12 Este 0 -- -- 51
2020-03-07 23:00:00 12 7 Este 13 Este 0 -- -- 50
2020-03-07 22:00:00 11.9 7 Este 10 Sudeste 0 -- -- 50
2020-03-07 21:00:00 13 6 Este 10 Este 0 -- -- 48
2020-03-07 20:00:00 15 5 Este 10 Nordeste 0 -- -- 43
2020-03-07 19:00:00 18.5 5 Nordeste 28 Nordeste 0 -- -- 36
2020-03-07 18:00:00 20.3 15 Nordeste 31 Nordeste 0 -- -- 31
2020-03-07 17:00:00 21.3 14 Nordeste 32 Norte 0 -- -- 30
2020-03-07 16:00:00 21 14 Nordeste 29 Nordeste 0 -- -- 32
2020-03-07 15:00:00 21.8 12 Nordeste 31 Norte 0 -- -- 29
2020-03-07 14:00:00 20.7 15 Nordeste 36 Nordeste 0 -- -- 29
2020-03-07 13:00:00 19.5 14 Nordeste 30 Nordeste 0 -- -- 34
2020-03-07 12:00:00 16.7 16 Nordeste 27 Nordeste 0 -- -- 46
2020-03-07 11:00:00 14.1 14 Nordeste 26 Nordeste 0 -- -- 54
2020-03-07 10:00:00 11.6 14 Nordeste 25 Nordeste 0 -- -- 58
2020-03-07 09:00:00 8.6 6 Este 20 Este 0 -- -- 66
2020-03-07 08:00:00 6.7 7 Este 17 Nordeste 0 -- -- 75
2020-03-07 07:00:00 6.9 9 Nordeste 16 Nordeste 0 -- -- 77
2020-03-07 06:00:00 7.2 7 Nordeste 13 Norte 0 -- -- 76
2020-03-07 05:00:00 7.8 4 Nordeste 15 Nordeste 0 -- -- 76
2020-03-07 04:00:00 8.3 9 Norte 14 Noroeste 0 -- -- 74
2020-03-07 03:00:00 9.4 8 Norte 14 Norte 0 -- -- 70
2020-03-07 02:00:00 9.5 8 Norte 15 Norte 0 -- -- 70
2020-03-07 01:00:00 10.2 6 Norte 18 Norte 0 -- -- 67
2020-03-07 00:00:00 10.8 7 Norte 15 Norte 0 -- -- 65
2020-03-06 23:00:00 10.7 2 Norte 7 Oeste 0 -- -- 67
2020-03-06 22:00:00 11.3 2 Noroeste 6 Noroeste 0 -- -- 68
2020-03-06 21:00:00 12.7 5 Noroeste 12 Noroeste 0 -- -- 60
2020-03-06 20:00:00 14.7 5 Noroeste 16 Norte 0 -- -- 49
2020-03-06 19:00:00 17.7 11 Noroeste 26 Noroeste 0 -- -- 42
2020-03-06 18:00:00 18.9 15 Noroeste 28 Noroeste 0 -- -- 40
2020-03-06 17:00:00 19.1 13 Noroeste 31 Noroeste 0 -- -- 43
2020-03-06 16:00:00 19 15 Noroeste 29 Noroeste 0 -- -- 42
2020-03-06 15:00:00 18.3 18 Noroeste 35 Noroeste 0 -- -- 45
2020-03-06 14:00:00 17.4 21 Noroeste 35 Noroeste 0 -- -- 51
2020-03-06 13:00:00 15.7 14 Noroeste 28 Noroeste 0 -- -- 57
2020-03-06 12:00:00 15 15 Noroeste 33 Noroeste 0 -- -- 59
2020-03-06 11:00:00 13.7 23 Noroeste 32 Noroeste 0 -- -- 72
2020-03-06 10:00:00 10.9 13 Noroeste 23 Oeste 0 -- -- 85
2020-03-06 09:00:00 8.1 4 Sudoeste 11 Oeste 0 -- -- 93
2020-03-06 08:00:00 7.5 7 Noroeste 14 Oeste 0 -- -- 93
2020-03-06 07:00:00 7.1 4 Sudoeste 11 Oeste 0 -- -- 91
2020-03-06 06:00:00 7.4 4 Noroeste 11 Oeste 0 -- -- 90
2020-03-06 05:00:00 7.7 8 Noroeste 13 Noroeste 0 -- -- 88
2020-03-06 04:00:00 7.6 6 Noroeste 15 Noroeste 0 -- -- 86
2020-03-06 03:00:00 8.2 6 Noroeste 14 Noroeste 0 -- -- 84
2020-03-06 02:00:00 9.6 8 Noroeste 18 Noroeste 0 -- -- 77
2020-03-06 01:00:00 10.5 12 Noroeste 19 Oeste 0 -- -- 73
2020-03-06 00:00:00 11.4 14 Noroeste 24 Noroeste 0 -- -- 70
2020-03-05 23:00:00 11.7 11 Noroeste 18 Noroeste 0 -- -- 69
2020-03-05 22:00:00 13.3 8 Oeste 15 Oeste 0 -- -- 68
2020-03-05 21:00:00 13.4 6 Sudoeste 13 Oeste 0 -- -- 79
2020-03-05 20:00:00 15.3 8 Oeste 21 Noroeste 0 -- -- 56
2020-03-05 19:00:00 17.4 16 Noroeste 28 Noroeste 0 -- -- 50
2020-03-05 18:00:00 18.5 20 Noroeste 32 Noroeste 0 -- -- 50
2020-03-05 17:00:00 18 18 Noroeste 32 Noroeste 0 -- -- 54
2020-03-05 16:00:00 17.8 11 Oeste 29 Oeste 0 -- -- 68
2020-03-05 15:00:00 17.2 9 Oeste 32 Oeste 0 -- -- 74
2020-03-05 14:00:00 16.6 18 Oeste 32 Sudoeste 0 -- -- 73
2020-03-05 13:00:00 16.3 10 Oeste 25 Noroeste 0 -- -- 73
2020-03-05 12:00:00 15.4 4 Oeste 16 Sur 0 -- -- 85
2020-03-05 11:00:00 12.7 8 Sur 17 Sur 0 -- -- 99
2020-03-05 10:00:00 10.8 8 Sur 18 Sur 0 -- -- 99
2020-03-05 09:00:00 9.5 4 Oeste 14 Sudoeste 0 -- -- 98
2020-03-05 08:00:00 10 3 Oeste 14 Oeste 0 -- -- 97
2020-03-05 07:00:00 9.7 2 Sudoeste 10 Sur 0 -- -- 97
2020-03-05 06:00:00 9.8 5 Sur 8 Sur 0 -- -- 96
2020-03-05 05:00:00 10.5 4 Sur 8 Sur 0 -- -- 95
2020-03-05 04:00:00 10.7 5 Sur 8 Sur 0 -- -- 95
2020-03-05 03:00:00 11.1 3 Sur 7 Sur 0 -- -- 94
2020-03-05 02:00:00 11.5 5 Sur 8 Sur 0 -- -- 94
2020-03-05 01:00:00 12 4 Sur 8 Sudoeste 0 -- -- 93
2020-03-05 00:00:00 11.5 3 Sudoeste 6 Sudoeste 0 -- -- 90
2020-03-04 23:00:00 12.6 0 Calma 7 Sudoeste 0 -- -- 87
2020-03-04 22:00:00 13.7 3 Sur 8 Oeste 0 -- -- 83
2020-03-04 21:00:00 14.7 0 Calma 9 Sudoeste 0 -- -- 79
2020-03-04 20:00:00 15.9 3 Sudoeste 23 Noroeste 0 -- -- 75
2020-03-04 19:00:00 18.1 14 Oeste 25 Noroeste 0 -- -- 69
2020-03-04 18:00:00 20.6 13 Noroeste 22 Noroeste 0 -- -- 52
2020-03-04 17:00:00 21.3 12 Noroeste 23 Oeste 0 -- -- 52
2020-03-04 16:00:00 21.4 12 Noroeste 28 Noroeste 0 -- -- 51
2020-03-04 15:00:00 20.6 12 Noroeste 34 Noroeste 0 -- -- 53
2020-03-04 14:00:00 19.9 9 Noroeste 22 Noroeste 0 -- -- 55
2020-03-04 13:00:00 18.8 9 Noroeste 21 Noroeste 0 -- -- 58
2020-03-04 12:00:00 17.9 8 Norte 16 Norte 0 -- -- 67
2020-03-04 11:00:00 15.3 5 Noroeste 10 Noroeste 0 -- -- 83
2020-03-04 10:00:00 12.5 4 Sur 9 Sudoeste 0 -- -- 98
2020-03-04 09:00:00 10.5 3 Sudoeste 6 Sudoeste 0 -- -- 98
2020-03-04 08:00:00 9.4 3 Sudoeste 6 Sur 0 -- -- 98
2020-03-04 07:00:00 10.4 4 Sudoeste 8 Sur 0 -- -- 97
2020-03-04 06:00:00 10.7 5 Sudoeste 9 Sudoeste 0 -- -- 97
2020-03-04 05:00:00 11 4 Sudoeste 8 Sudoeste 0 -- -- 96
2020-03-04 04:00:00 11.6 5 Sudoeste 7 Sudoeste 0 -- -- 95
2020-03-04 03:00:00 12.4 3 Sur 6 Sudoeste 0 -- -- 94
2020-03-04 02:00:00 13.2 5 Sur 8 Sur 0 -- -- 93
2020-03-04 01:00:00 13.9 3 Sudoeste 12 Sudoeste 0 -- -- 89
2020-03-04 00:00:00 15.2 8 Sur 14 Sur 0 -- -- 88
2020-03-03 23:00:00 15.3 6 Sudoeste 13 Sudoeste 0 -- -- 87
2020-03-03 22:00:00 15.2 6 Sudoeste 13 Sudoeste 0 -- -- 85
2020-03-03 21:00:00 14.6 4 Sudoeste 10 Sudoeste 0 -- -- 84
2020-03-03 20:00:00 15.2 4 Sudoeste 14 Sudoeste 0 -- -- 80
2020-03-03 19:00:00 16.1 5 Sudoeste 20 Noroeste 0 -- -- 74
2020-03-03 18:00:00 17.7 6 Oeste 19 Sudoeste 0 -- -- 64
2020-03-03 17:00:00 17.6 8 Oeste 21 Oeste 0 -- -- 63
2020-03-03 16:00:00 18.2 8 Oeste 29 Noroeste 0 -- -- 59
2020-03-03 15:00:00 17.8 17 Oeste 35 Oeste 0 -- -- 61
2020-03-03 14:00:00 17.4 15 Oeste 37 Noroeste 0 -- -- 59
2020-03-03 13:00:00 17.1 12 Oeste 31 Oeste 0 -- -- 60
2020-03-03 12:00:00 15.6 9 Oeste 19 Oeste 0 -- -- 66
2020-03-03 11:00:00 14.1 4 Oeste 10 Sur 0 -- -- 70
2020-03-03 10:00:00 11.2 7 Sur 12 Sur 0 -- -- 83
2020-03-03 09:00:00 8.3 5 Sudeste 8 Sudeste 0 -- -- 92
2020-03-03 08:00:00 7.4 5 Sur 8 Sudoeste 0 -- -- 92
2020-03-03 07:00:00 7.6 5 Sur 7 Sudoeste 0 -- -- 90
2020-03-03 06:00:00 7.8 4 Sudoeste 8 Sur 0 -- -- 90
2020-03-03 05:00:00 7.8 4 Sudoeste 9 Sudoeste 0 -- -- 90
2020-03-03 04:00:00 8 5 Sudoeste 8 Sudoeste 0 -- -- 89
2020-03-03 03:00:00 8.8 3 Sudoeste 11 Sur 0 -- -- 84
2020-03-03 02:00:00 10.4 5 Sudoeste 11 Noroeste 0 -- -- 77
2020-03-03 01:00:00 11.4 5 Sudoeste 17 Noroeste 0 -- -- 72
2020-03-03 00:00:00 11.7 6 Noroeste 16 Oeste 0 -- -- 73
2020-03-02 23:00:00 13 6 Sudoeste 15 Oeste 0 -- -- 71
2020-03-02 22:00:00 13.1 4 Oeste 16 Sudoeste 0 -- -- 79
2020-03-02 21:00:00 14.1 4 Sudoeste 12 Noroeste 0 -- -- 76
2020-03-02 20:00:00 15.3 3 Sudoeste 14 Noroeste 0 -- -- 68
2020-03-02 19:00:00 16.8 7 Oeste 30 Oeste 0 -- -- 59
2020-03-02 18:00:00 18.9 16 Oeste 33 Noroeste 0 -- -- 46
2020-03-02 17:00:00 19.6 16 Oeste 36 Oeste 0 -- -- 50
2020-03-02 16:00:00 19.6 14 Oeste 37 Oeste 0 -- -- 51
2020-03-02 15:00:00 18.7 16 Oeste 39 Oeste 0 -- -- 65
2020-03-02 14:00:00 19.2 14 Oeste 34 Noroeste 0 -- -- 72
2020-03-02 13:00:00 19.1 10 Oeste 31 Oeste 0 -- -- 75
2020-03-02 12:00:00 18 10 Oeste 27 Oeste 0 -- -- 85
2020-03-02 11:00:00 17 7 Oeste 30 Sudoeste 0 -- -- 87
2020-03-02 10:00:00 16.2 8 Sudoeste 23 Sur 0 -- -- 93
2020-03-02 09:00:00 15.2 8 Sudoeste 29 Sudoeste 0 -- -- 95
2020-03-02 08:00:00 15 8 Sudoeste 32 Sudoeste 0.8 -- -- 94
2020-03-02 07:00:00 15.4 4 Oeste 21 Oeste 0 -- -- 92
2020-03-02 06:00:00 15.6 7 Oeste 25 Noroeste 0 -- -- 91
2020-03-02 05:00:00 15.6 8 Sudoeste 30 Sudoeste 0 -- -- 90
2020-03-02 04:00:00 15.5 11 Sudoeste 31 Sur 0 -- -- 90
2020-03-02 03:00:00 15.4 16 Sudoeste 31 Sur 0 -- -- 89
2020-03-02 02:00:00 15 12 Sudoeste 30 Sudoeste 0 -- -- 91
2020-03-02 01:00:00 15.1 8 Sudoeste 21 Sudoeste 0 -- -- 91
2020-03-02 00:00:00 14.9 12 Sudoeste 25 Sudoeste 0 -- -- 91
2020-03-01 23:00:00 14.9 13 Sur 31 Sur 0 -- -- 90
2020-03-01 22:00:00 15.4 15 Sudoeste 28 Sur 0 -- -- 87
2020-03-01 21:00:00 15.6 11 Sudoeste 22 Sudoeste 0 -- -- 85
2020-03-01 20:00:00 15.9 12 Sudoeste 24 Sudoeste 0 -- -- 82
2020-03-01 19:00:00 16.5 7 Sudoeste 21 Oeste 0 -- -- 77
2020-03-01 18:00:00 17 9 Sudoeste 24 Sudoeste 0 -- -- 75
2020-03-01 17:00:00 17.6 6 Oeste 21 Oeste 0 -- -- 70
2020-03-01 16:00:00 19.2 9 Oeste 26 Oeste 0 -- -- 62
2020-03-01 15:00:00 19.3 8 Oeste 27 Noroeste 0 -- -- 62
2020-03-01 14:00:00 18.1 11 Oeste 26 Oeste 0 -- -- 63
2020-03-01 13:00:00 17.4 15 Oeste 28 Noroeste 0 -- -- 69
2020-03-01 12:00:00 16.7 6 Oeste 17 Sur 0 -- -- 79
2020-03-01 11:00:00 15.7 8 Sudoeste 18 Sur 0 -- -- 88
2020-03-01 10:00:00 14.1 9 Sur 15 Sur 0 -- -- 95
2020-03-01 09:00:00 12.3 7 Sur 13 Sur 0 -- -- 96
2020-03-01 08:00:00 10.6 4 Sur 10 Sudeste 0 -- -- 95
2020-03-01 07:00:00 10.8 5 Sur 8 Sudeste 0 -- -- 93
2020-03-01 06:00:00 11.3 4 Sudoeste 14 Oeste 0 -- -- 91
2020-03-01 05:00:00 11.9 4 Oeste 13 Oeste 0 -- -- 90
2020-03-01 04:00:00 12.6 3 Sudoeste 12 Oeste 0 -- -- 91
2020-03-01 03:00:00 13.2 8 Oeste 16 Noroeste 0 -- -- 94
2020-03-01 02:00:00 14.3 4 Oeste 10 Sudoeste 0 -- -- 97
2020-03-01 01:00:00 14.4 4 Sudoeste 11 Sudoeste 0 -- -- 97
2020-03-01 00:00:00 14.7 7 Sudoeste 17 Sudoeste 0 -- -- 97
2020-02-29 23:00:00 14.3 10 Sudoeste 27 Sur 1.2 -- -- 96
2020-02-29 22:00:00 14.2 14 Sur 25 Sudoeste 0 -- -- 96
2020-02-29 21:00:00 14 13 Sur 20 Sudoeste 0.4 -- -- 94
2020-02-29 20:00:00 14.9 9 Sudoeste 24 Sudoeste 0 -- -- 85
2020-02-29 19:00:00 15.9 11 Sudoeste 27 Sudoeste 0 -- -- 75
2020-02-29 18:00:00 16.4 10 Sudoeste 26 Sudoeste 0 -- -- 73
2020-02-29 17:00:00 17.2 9 Sudoeste 30 Sur 0 -- -- 68
2020-02-29 16:00:00 17.4 14 Sudoeste 27 Sudoeste 0 -- -- 67
2020-02-29 15:00:00 17.8 9 Oeste 30 Sudoeste 0 -- -- 64
2020-02-29 14:00:00 16 13 Sur 24 Sur 0 -- -- 73
2020-02-29 13:00:00 14.7 6 Oeste 13 Noroeste 0 -- -- 76
2020-02-29 12:00:00 14.1 4 Oeste 10 Oeste 0 -- -- 78
2020-02-29 11:00:00 13.2 3 Oeste 10 Oeste 0 -- -- 84
2020-02-29 10:00:00 12.3 2 Norte 9 Sudoeste 0 -- -- 95
2020-02-29 09:00:00 11.6 4 Sur 11 Sudoeste 0 -- -- 97
2020-02-29 08:00:00 11.3 2 Sudoeste 16 Sur 0 -- -- 97
2020-02-29 07:00:00 11.9 10 Sur 17 Sur 0 -- -- 97
2020-02-29 06:00:00 11.6 9 Sur 17 Sudoeste 0 -- -- 97
2020-02-29 05:00:00 11.6 11 Sur 17 Sur 0 -- -- 96
2020-02-29 04:00:00 11.6 8 Sudeste 15 Sudeste 0 -- -- 95
2020-02-29 03:00:00 11.3 8 Sudeste 14 Sudeste 0 -- -- 93
2020-02-29 02:00:00 11.7 6 Sur 14 Sur 0 -- -- 91
2020-02-29 01:00:00 12.4 8 Sur 19 Sudoeste 0 -- -- 90
2020-02-29 00:00:00 13.6 8 Sudoeste 17 Sudoeste 0 -- -- 91